Time;durP1;ratioP1;P1;durP2;ratioP2;P2;SDS_P1;SDS_P2;PMS_P1;PMS_P2;Temp;Humidity;BMP_temperature;BMP_pressure;BME280_temperature;BME280_humidity;BME280_pressure;Samples;Min_cycle;Max_cycle;Signal;HPM_P1;HPM_P2
2023/10/17 00:00:32;;;;;;;3.53;1.93;;;;;;;13.69;54.22;100159.84;1672144;86;21299;-82
2023/10/17 00:03:15;;;;;;;4.00;2.42;;;;;;;13.49;55.09;100163.78;1671978;86;21303;-81
2023/10/17 00:06:22;;;;;;;4.55;3.10;;;;;;;13.26;55.04;100164.53;1671299;84;21326;-82
2023/10/17 00:09:36;;;;;;;8.60;3.27;;;;;;;12.68;56.57;100163.17;1672037;86;21288;-81
2023/10/17 00:12:44;;;;;;;4.75;2.75;;;;;;;12.43;57.42;100158.56;1670893;84;21323;-81
2023/10/17 00:15:49;;;;;;;3.80;2.80;;;;;;;12.48;57.17;100163.47;1674907;84;21983;-82
2023/10/17 00:18:56;;;;;;;4.55;2.83;;;;;;;12.60;57.06;100164.66;1648725;87;21363;-80
2023/10/17 00:22:04;;;;;;;4.40;2.67;;;;;;;12.73;56.70;100166.70;1650559;85;21367;-82
2023/10/17 00:25:09;;;;;;;4.28;2.92;;;;;;;13.02;55.55;100172.09;1651605;87;21631;-83
2023/10/17 00:28:20;;;;;;;5.05;3.30;;;;;;;13.11;55.10;100176.09;1650672;87;21300;-83
2023/10/17 00:31:23;;;;;;;6.30;3.27;;;;;;;13.08;55.28;100179.21;1651106;85;21331;-82
2023/10/17 00:34:28;;;;;;;8.35;3.60;;;;;;;12.63;56.37;100180.74;1651503;87;21852;-83
2023/10/17 00:37:37;;;;;;;3.90;2.77;;;;;;;12.45;57.17;100185.78;1650382;85;21306;-81
2023/10/17 00:40:51;;;;;;;5.33;3.10;;;;;;;12.90;55.90;100190.14;1651473;85;21379;-80
2023/10/17 00:43:55;;;;;;;6.92;3.67;;;;;;;12.82;56.15;100189.41;1647004;87;21364;-82
2023/10/17 00:47:00;;;;;;;6.33;2.72;;;;;;;12.76;56.36;100190.51;1674837;84;21322;-81
2023/10/17 00:50:12;;;;;;;4.33;2.80;;;;;;;13.09;55.74;100194.67;1675665;85;21829;-81
2023/10/17 00:53:13;;;;;;;5.90;3.20;;;;;;;13.01;55.79;100192.36;1655471;85;21877;-80
2023/10/17 00:56:20;;;;;;;7.17;3.10;;;;;;;13.08;55.38;100193.82;1675652;84;21307;-81
2023/10/17 00:59:12;;;;;;;5.42;2.98;;;;;;;13.19;55.17;100204.80;1674538;85;21367;-80
2023/10/17 01:02:22;;;;;;;9.15;3.00;;;;;;;12.98;55.59;100202.34;1674911;84;21308;-82
2023/10/17 01:05:26;;;;;;;3.52;2.58;;;;;;;13.29;55.03;100209.47;1675737;85;21291;-82
2023/10/17 01:08:39;;;;;;;6.97;3.42;;;;;;;13.03;55.72;100213.63;1675911;85;21332;-81
2023/10/17 01:11:49;;;;;;;7.75;3.42;;;;;;;12.66;56.02;100218.78;1675726;84;21864;-81
2023/10/17 01:14:52;;;;;;;4.17;2.85;;;;;;;12.60;56.89;100228.28;1676047;85;21312;-80
2023/10/17 01:18:03;;;;;;;6.47;3.10;;;;;;;12.46;57.34;100229.48;1675884;85;21880;-81
2023/10/17 01:21:05;;;;;;;6.05;3.27;;;;;;;13.01;55.96;100226.67;1675919;84;21701;-80
2023/10/17 01:24:12;;;;;;;5.60;3.47;;;;;;;13.14;55.34;100231.47;1676046;85;21291;-80
2023/10/17 01:27:18;;;;;;;7.53;4.33;;;;;;;13.15;55.13;100229.58;1675966;84;21320;-83
2023/10/17 01:30:28;;;;;;;11.28;4.35;;;;;;;13.00;55.28;100228.26;1673589;85;21311;-82
2023/10/17 01:33:32;;;;;;;6.87;4.58;;;;;;;13.07;55.27;100235.18;1669132;86;21308;-82
2023/10/17 01:36:37;;;;;;;10.60;4.95;;;;;;;13.02;55.36;100239.88;1668354;84;21344;-81
2023/10/17 01:39:43;;;;;;;10.55;4.78;;;;;;;12.91;55.60;100241.24;1667903;86;21336;-80
2023/10/17 01:42:49;;;;;;;7.70;5.17;;;;;;;12.90;55.85;100245.04;1668874;84;21948;-81
2023/10/17 01:45:55;;;;;;;9.83;5.58;;;;;;;12.97;55.68;100242.36;1668979;84;21318;-82
2023/10/17 01:49:10;;;;;;;16.10;5.97;;;;;;;13.13;55.06;100248.16;1669019;86;21285;-82
2023/10/17 01:52:06;;;;;;;8.63;5.92;;;;;;;13.13;54.95;100245.41;1668961;84;21659;-82
2023/10/17 01:54:59;;;;;;;12.85;6.65;;;;;;;13.46;54.18;100248.53;1668642;86;21295;-82
2023/10/17 01:57:48;;;;;;;12.78;6.90;;;;;;;13.19;54.68;100252.33;1667898;84;21311;-80
2023/10/17 02:00:42;;;;;;;10.70;7.05;;;;;;;13.24;54.31;100253.16;1668815;84;21288;-83
2023/10/17 02:03:47;;;;;;;10.53;6.87;;;;;;;12.82;55.34;100258.02;1668709;86;21292;-82
2023/10/17 02:06:54;;;;;;;9.33;6.97;;;;;;;12.90;54.91;100261.52;1668190;84;21323;-80
2023/10/17 02:10:00;;;;;;;11.55;7.15;;;;;;;12.83;55.05;100261.94;1669075;86;21304;-82
2023/10/17 02:13:07;;;;;;;13.75;7.28;;;;;;;13.03;54.60;100268.54;1669073;86;21307;-81
2023/10/17 02:16:13;;;;;;;11.57;6.25;;;;;;;12.83;55.17;100274.29;1668669;84;21857;-81
2023/10/17 02:19:19;;;;;;;11.48;7.28;;;;;;;13.09;54.48;100279.79;1667838;86;21364;-83
2023/10/17 02:22:26;;;;;;;10.65;7.40;;;;;;;12.94;54.66;100287.55;1668037;84;22460;-83
2023/10/17 02:25:41;;;;;;;14.53;7.17;;;;;;;13.35;53.84;100294.36;1668861;84;21288;-81
2023/10/17 02:28:47;;;;;;;13.85;7.60;;;;;;;13.01;54.73;100298.06;1669046;86;21327;-82
2023/10/17 02:31:54;;;;;;;10.95;7.70;;;;;;;13.18;54.09;100300.60;1668444;84;21690;-81
2023/10/17 02:35:03;;;;;;;11.93;7.83;;;;;;;13.08;54.39;100301.41;1668965;86;21324;-82
2023/10/17 02:38:09;;;;;;;16.48;7.60;;;;;;;13.15;54.11;100299.61;1668553;86;21964;-80
2023/10/17 02:41:31;;;;;;;15.25;9.23;;;;;;;12.88;54.65;100301.16;1667808;84;21336;-81
2023/10/17 02:44:11;;;;;;;17.05;8.53;;;;;;;12.83;55.10;100302.27;1668798;86;21336;-83
2023/10/17 02:47:20;;;;;;;12.65;8.88;;;;;;;12.83;54.87;100303.11;1667780;84;21331;-80
2023/10/17 02:53:38;;;;;;;14.13;9.43;;;;;;;12.76;55.21;100306.30;1668566;86;21320;-81
2023/10/17 02:56:46;;;;;;;14.83;9.10;;;;;;;12.93;54.63;100307.78;1667755;84;21343;-82
2023/10/17 02:59:56;;;;;;;14.53;10.13;;;;;;;13.22;53.78;100311.05;1668888;86;21308;-83
2023/10/17 03:03:12;;;;;;;17.27;10.35;;;;;;;13.15;53.79;100309.22;1669170;86;21311;-80
2023/10/17 03:06:15;;;;;;;14.75;9.00;;;;;;;13.05;54.01;100310.38;1668700;84;21880;-81
2023/10/17 03:12:29;;;;;;;11.45;8.55;;;;;;;13.07;53.77;100310.69;1669336;84;21348;-82
2023/10/17 03:15:38;;;;;;;13.98;9.20;;;;;;;12.92;53.95;100307.45;1669002;84;21292;-80
2023/10/17 03:18:49;;;;;;;14.38;9.28;;;;;;;12.89;54.06;100317.47;1668209;86;21323;-81
2023/10/17 03:21:53;;;;;;;17.45;9.90;;;;;;;13.03;53.63;100309.73;1669145;84;21424;-81
2023/10/17 03:25:09;;;;;;;15.58;9.58;;;;;;;13.54;52.36;100312.95;1669113;86;21344;-80
2023/10/17 03:28:22;;;;;;;11.35;8.33;;;;;;;12.47;54.83;100320.36;1668989;86;21295;-81
2023/10/17 03:31:26;;;;;;;15.95;8.48;;;;;;;12.54;54.40;100320.45;1668219;84;21355;-81
2023/10/17 03:34:35;;;;;;;14.33;9.03;;;;;;;12.84;53.63;100324.55;1667721;86;21284;-81
2023/10/17 03:37:41;;;;;;;13.28;9.83;;;;;;;11.90;56.45;100320.05;1667871;84;21343;-79
2023/10/17 03:40:54;;;;;;;12.75;8.93;;;;;;;11.99;56.82;100321.16;1668486;84;22253;-81
2023/10/17 03:44:01;;;;;;;13.70;9.60;;;;;;;12.12;56.15;100326.02;1669088;86;21301;-82
2023/10/17 03:47:07;;;;;;;19.20;8.83;;;;;;;12.01;56.30;100334.19;1668136;84;21383;-79
2023/10/17 03:50:31;;;;;;;19.77;10.20;;;;;;;12.15;56.16;100329.77;1668913;86;21774;-79
2023/10/17 03:53:29;;;;;;;12.00;8.53;;;;;;;12.07;56.49;100333.11;1669214;86;21276;-81
2023/10/17 03:57:25;;;;;;;12.68;9.95;;;;;;;11.84;56.98;100336.72;1669102;84;21324;-81
2023/10/17 03:59:58;;;;;;;16.62;10.60;;;;;;;11.75;57.47;100333.67;1663635;85;21300;-81
2023/10/17 04:03:08;;;;;;;15.98;11.20;;;;;;;12.15;56.50;100350.34;1668964;86;21289;-81
2023/10/17 04:09:26;;;;;;;15.88;10.35;;;;;;;12.30;55.97;100364.08;1668993;86;21288;-81
2023/10/17 04:12:49;;;;;;;16.20;10.53;;;;;;;12.37;55.60;100364.17;1667956;84;21308;-81
2023/10/17 04:15:48;;;;;;;18.25;11.25;;;;;;;12.34;55.31;100362.67;1649366;85;21319;-81
2023/10/17 04:19:07;;;;;;;15.65;11.35;;;;;;;12.12;56.12;100371.78;1655000;84;21338;-79
2023/10/17 04:22:15;;;;;;;17.00;11.55;;;;;;;12.34;55.56;100370.90;1638759;86;21902;-81
2023/10/17 04:25:34;;;;;;;16.87;12.20;;;;;;;12.57;54.83;100368.63;1655048;86;21321;-81
2023/10/17 04:28:41;;;;;;;20.88;12.50;;;;;;;12.45;55.18;100381.41;1639756;87;21326;-81
2023/10/17 04:31:55;;;;;;;18.55;11.28;;;;;;;12.73;54.83;100387.11;1638709;86;21364;-80
2023/10/17 04:35:02;;;;;;;;;;;;;;;12.51;55.05;100398.52;1661535;86;21310;-81
2023/10/17 04:41:40;;;;;;;20.35;12.37;;;;;;;12.86;54.30;100406.20;1654227;85;21381;-81
2023/10/17 04:44:50;;;;;;;16.53;11.43;;;;;;;12.53;55.52;100412.88;1665067;86;21286;-80
2023/10/17 04:48:09;;;;;;;16.23;10.88;;;;;;;12.46;55.75;100413.28;1638092;86;21900;-82
2023/10/17 04:51:12;;;;;;;18.90;12.07;;;;;;;12.64;55.38;100429.92;1637573;86;21375;-82
2023/10/17 04:54:39;;;;;;;18.85;12.75;;;;;;;12.82;55.12;100440.03;1639019;87;21328;-79
2023/10/17 05:04:21;;;;;;;17.55;11.22;;;;;;;13.22;54.77;100446.12;1638511;87;21329;-82
2023/10/17 06:18:52;;;;;;;14.93;9.85;;;;;;;14.45;52.10;100537.40;1672893;85;21283;-81
2023/10/17 06:28:34;;;;;;;17.95;10.48;;;;;;;14.10;52.74;100533.09;1636653;86;21905;-80
2023/10/17 06:31:41;;;;;;;13.80;9.08;;;;;;;13.83;53.54;100536.55;1654262;86;21312;-81
2023/10/17 06:34:45;;;;;;;14.33;9.33;;;;;;;14.05;52.97;100534.20;1651032;86;21365;-80
2023/10/17 06:37:51;;;;;;;18.30;8.38;;;;;;;14.68;51.62;100539.96;1640763;85;21351;-80
2023/10/17 06:41:11;;;;;;;13.88;8.33;;;;;;;14.42;52.39;100540.53;1644293;85;21306;-81
2023/10/17 06:44:09;;;;;;;16.00;8.18;;;;;;;14.69;51.98;100541.69;1648535;86;21273;-80
2023/10/17 06:47:17;;;;;;;16.27;7.70;;;;;;;14.68;51.73;100530.32;1651070;86;21284;-81
2023/10/17 06:53:48;;;;;;;16.20;8.60;;;;;;;14.52;51.49;100552.95;1640463;87;21368;-81
2023/10/17 06:56:55;;;;;;;16.13;8.10;;;;;;;14.75;51.92;100561.01;1644290;87;21940;-80
2023/10/17 07:00:04;;;;;;;15.72;8.20;;;;;;;14.50;52.62;100554.20;1645982;86;21332;-80
2023/10/17 07:03:57;;;;;;;10.13;6.42;;;;;;;14.69;51.25;100551.33;1650662;86;22190;-79
2023/10/17 07:06:19;;;;;;;12.07;7.00;;;;;;;14.88;50.79;100547.05;1642832;86;21349;-83
2023/10/17 07:09:29;;;;;;;13.45;7.55;;;;;;;15.13;50.32;100555.19;1648083;87;21303;-83
2023/10/17 07:12:38;;;;;;;13.08;6.47;;;;;;;15.26;50.90;100557.20;1647471;85;21323;-82
2023/10/17 07:15:41;;;;;;;9.85;6.65;;;;;;;15.41;50.83;100560.69;1636836;87;21917;-80
2023/10/17 07:18:47;;;;;;;12.50;6.17;;;;;;;15.69;50.46;100563.97;1645257;87;21263;-83
2023/10/17 07:25:14;;;;;;;13.30;6.83;;;;;;;15.26;50.85;100568.22;1640680;87;21268;-84
2023/10/17 07:28:11;;;;;;;7.65;4.85;;;;;;;15.54;50.22;100564.91;1667605;86;22236;-83
2023/10/17 07:31:17;;;;;;;13.72;5.83;;;;;;;15.58;49.90;100559.33;1653936;86;21379;-84
2023/10/17 07:34:23;;;;;;;10.75;5.40;;;;;;;15.88;49.17;100554.09;1668072;86;21318;-84
2023/10/17 07:37:34;;;;;;;11.18;6.37;;;;;;;14.97;51.23;100570.12;1657032;86;21318;-83
2023/10/17 07:43:46;;;;;;;13.45;5.75;;;;;;;15.09;52.98;100584.19;1667115;84;21293;-79
2023/10/17 07:47:08;;;;;;;15.20;6.50;;;;;;;15.42;52.05;100579.45;1640902;86;21307;-80
2023/10/17 07:50:00;;;;;;;8.38;5.20;;;;;;;15.64;51.16;100583.03;1638797;87;21291;-83
2023/10/17 07:53:06;;;;;;;10.03;4.87;;;;;;;16.04;51.67;100587.72;1645283;86;21346;-80
2023/10/17 07:56:20;;;;;;;10.48;5.17;;;;;;;16.21;50.91;100593.71;1638047;87;21386;-80
2023/10/17 07:59:30;;;;;;;10.40;6.00;;;;;;;16.36;51.07;100588.88;1641359;87;21933;-83
2023/10/17 08:02:30;;;;;;;7.28;4.65;;;;;;;16.96;50.37;100584.05;1638238;87;21351;-84
2023/10/17 08:05:44;;;;;;;8.10;4.35;;;;;;;17.19;49.37;100585.02;1648289;86;21280;-84
2023/10/17 08:08:46;;;;;;;6.10;3.95;;;;;;;17.28;48.49;100598.41;1643215;87;21311;-84
2023/10/17 08:11:46;;;;;;;10.05;4.83;;;;;;;17.45;47.56;100594.66;1667406;86;21898;-82
2023/10/17 08:14:42;;;;;;;10.45;5.08;;;;;;;17.23;48.69;100604.26;1638888;86;22210;-84
2023/10/17 08:17:49;;;;;;;7.40;4.75;;;;;;;17.55;48.46;100605.27;1643819;86;21311;-81
2023/10/17 08:24:07;;;;;;;10.15;4.33;;;;;;;17.43;48.99;100610.63;1674721;84;21353;-81
2023/10/17 08:27:41;;;;;;;7.47;4.10;;;;;;;17.61;49.10;100609.43;1648520;86;21346;-81
2023/10/17 08:30:26;;;;;;;9.28;5.33;;;;;;;17.68;48.91;100614.09;1650416;86;21323;-85
2023/10/17 08:33:37;;;;;;;12.23;5.33;;;;;;;18.05;49.13;100616.70;1649555;87;21788;-83
2023/10/17 08:36:42;;;;;;;8.43;4.55;;;;;;;18.38;48.61;100616.56;1642057;87;21936;-84
2023/10/17 08:42:56;;;;;;;8.48;4.80;;;;;;;18.60;47.31;100621.26;1656579;85;21328;-84
2023/10/17 08:46:06;;;;;;;11.18;5.03;;;;;;;18.35;45.74;100618.41;1667088;85;21307;-84
2023/10/17 08:49:10;;;;;;;8.80;5.22;;;;;;;18.45;46.92;100622.09;1672455;85;21280;-80
2023/10/17 08:52:28;;;;;;;12.37;6.28;;;;;;;18.29;46.55;100627.57;1647985;87;21302;-84
2023/10/17 08:55:34;;;;;;;12.25;6.08;;;;;;;17.79;46.68;100625.94;1649612;87;21951;-81
2023/10/17 08:58:43;;;;;;;9.43;6.55;;;;;;;17.56;46.81;100620.30;1648040;86;21903;-82
2023/10/17 09:02:48;;;;;;;12.40;5.78;;;;;;;17.33;47.60;100615.73;1634778;87;21314;-81
2023/10/17 09:05:29;;;;;;;7.37;5.00;;;;;;;17.25;46.89;100616.79;1642982;87;21323;-83
2023/10/17 09:15:16;;;;;;;9.55;5.53;;;;;;;17.92;47.50;100617.58;1606237;86;21354;-83
2023/10/17 09:18:21;;;;;;;9.30;5.53;;;;;;;18.38;45.87;100616.02;1618487;88;21382;-84
2023/10/17 09:21:26;;;;;;;9.38;6.28;;;;;;;18.08;44.76;100611.58;1623888;87;21334;-83
2023/10/17 09:24:36;;;;;;;9.98;6.05;;;;;;;17.88;45.09;100610.27;1643346;86;21848;-80
2023/10/17 09:27:44;;;;;;;10.15;5.67;;;;;;;17.87;45.67;100601.62;1635927;86;21335;-82
2023/10/17 09:30:53;;;;;;;9.85;5.42;;;;;;;18.02;46.25;100608.31;1653129;84;21880;-80
2023/10/17 09:34:00;;;;;;;12.75;6.28;;;;;;;18.22;44.67;100612.92;1645768;86;21310;-83
2023/10/17 09:37:05;;;;;;;14.85;6.22;;;;;;;18.30;44.16;100610.77;1659527;85;21364;-81
2023/10/17 09:40:13;;;;;;;12.07;5.90;;;;;;;18.24;45.78;100611.62;1636994;87;21702;-81
2023/10/17 09:43:19;;;;;;;8.60;5.90;;;;;;;18.35;45.42;100614.25;1637940;86;21280;-84
2023/10/17 09:46:32;;;;;;;10.45;6.00;;;;;;;18.26;44.82;100619.19;1637131;86;21292;-80
2023/10/17 09:49:45;;;;;;;11.08;6.53;;;;;;;17.67;45.44;100608.25;1619401;87;21865;-84
2023/10/17 09:52:52;;;;;;;11.10;6.65;;;;;;;17.70;46.12;100618.89;1638332;86;21869;-83
2023/10/17 09:55:58;;;;;;;13.35;6.45;;;;;;;17.98;46.71;100612.58;1638073;86;21375;-81
2023/10/17 09:59:11;;;;;;;9.88;6.37;;;;;;;18.10;46.88;100612.20;1638257;86;21299;-81
2023/10/17 10:02:20;;;;;;;8.33;5.12;;;;;;;18.47;46.04;100615.24;1638417;86;21877;-83
2023/10/17 10:05:32;;;;;;;10.70;6.00;;;;;;;18.56;45.92;100613.92;1638225;87;21300;-84
2023/10/17 10:08:39;;;;;;;9.48;5.15;;;;;;;18.49;45.85;100606.20;1665928;86;21306;-83
2023/10/17 10:12:01;;;;;;;7.00;4.12;;;;;;;18.36;46.22;100614.02;1665392;84;21321;-81
2023/10/17 10:15:07;;;;;;;15.10;4.80;;;;;;;18.28;46.50;100612.88;1658933;86;21648;-84
2023/10/17 10:18:14;;;;;;;4.45;3.30;;;;;;;18.56;46.84;100613.07;1638332;87;21849;-83
2023/10/17 10:21:22;;;;;;;5.90;3.60;;;;;;;18.54;46.65;100606.91;1638228;86;21343;-81
2023/10/17 10:24:37;;;;;;;4.40;3.02;;;;;;;18.37;46.13;100603.80;1637958;87;21238;-84
2023/10/17 10:27:42;;;;;;;5.62;3.30;;;;;;;18.24;46.90;100606.08;1656625;85;21329;-81
2023/10/17 10:30:49;;;;;;;6.62;2.98;;;;;;;18.45;46.10;100604.09;1628023;88;21326;-83
2023/10/17 10:34:06;;;;;;;5.40;3.15;;;;;;;18.25;45.80;100601.39;1638504;87;21349;-81
2023/10/17 10:37:13;;;;;;;6.15;3.75;;;;;;;18.00;46.20;100600.74;1635357;86;21329;-81
2023/10/17 10:40:24;;;;;;;5.22;3.80;;;;;;;18.02;46.12;100596.36;1639779;87;21315;-81
2023/10/17 10:43:30;;;;;;;8.65;3.17;;;;;;;18.10;45.75;100596.97;1628973;88;21313;-83
2023/10/17 10:46:35;;;;;;;8.40;3.40;;;;;;;18.21;46.23;100599.62;1655913;86;21388;-81
2023/10/17 10:49:42;;;;;;;8.55;3.42;;;;;;;18.32;46.59;100598.07;1670648;86;21292;-84
2023/10/17 10:52:48;;;;;;;3.87;2.90;;;;;;;18.42;46.21;100595.67;1655428;85;21325;-84
2023/10/17 10:56:13;;;;;;;4.85;3.30;;;;;;;18.55;45.74;100594.77;1656545;85;21376;-82
2023/10/17 10:59:18;;;;;;;7.28;3.08;;;;;;;18.43;45.79;100593.20;1656689;86;21538;-81
2023/10/17 11:02:26;;;;;;;9.93;3.20;;;;;;;18.64;46.16;100598.43;1621287;86;21682;-81
2023/10/17 11:05:33;;;;;;;5.78;2.87;;;;;;;18.85;45.96;100595.02;1655220;85;21271;-83
2023/10/17 11:08:52;;;;;;;6.08;3.25;;;;;;;18.81;44.68;100599.30;1640097;87;21322;-81
2023/10/17 11:11:57;;;;;;;5.67;2.83;;;;;;;18.48;45.55;100599.47;1639280;86;21351;-82
2023/10/17 11:15:22;;;;;;;4.10;2.67;;;;;;;18.59;45.88;100589.94;1637541;87;22243;-81
2023/10/17 11:18:25;;;;;;;5.17;2.80;;;;;;;18.79;46.08;100600.08;1638316;87;21236;-82
2023/10/17 11:21:24;;;;;;;7.03;3.00;;;;;;;18.76;43.42;100597.20;1639314;86;21359;-82
2023/10/17 11:24:17;;;;;;;6.78;2.90;;;;;;;18.89;44.35;100594.89;1639259;87;21358;-82
2023/10/17 11:27:23;;;;;;;4.58;2.72;;;;;;;18.83;43.32;100587.48;1638890;86;21351;-82
2023/10/17 11:30:35;;;;;;;4.55;2.70;;;;;;;18.76;43.34;100594.97;1629261;88;21286;-79
2023/10/17 11:33:47;;;;;;;4.47;2.75;;;;;;;18.79;43.47;100592.61;1656577;86;21295;-80
2023/10/17 11:37:04;;;;;;;4.00;2.95;;;;;;;18.50;44.00;100589.88;1656476;85;21308;-80
2023/10/17 11:40:26;;;;;;;4.72;2.90;;;;;;;18.58;44.43;100595.68;1656717;86;21280;-84
2023/10/17 11:43:34;;;;;;;4.55;3.12;;;;;;;18.38;44.37;100590.25;1657195;86;21269;-80
2023/10/17 11:46:38;;;;;;;8.78;3.30;;;;;;;18.50;44.77;100598.19;1657491;85;21341;-83
2023/10/17 11:49:47;;;;;;;5.28;3.08;;;;;;;18.66;45.09;100592.66;1640041;87;21335;-83
2023/10/17 11:52:53;;;;;;;6.40;3.02;;;;;;;18.72;44.84;100599.25;1639779;86;21827;-82
2023/10/17 11:55:58;;;;;;;5.87;3.05;;;;;;;18.78;44.74;100593.69;1629368;88;21792;-81
2023/10/17 11:59:05;;;;;;;4.60;2.75;;;;;;;19.12;44.55;100597.06;1641135;87;21318;-84
2023/10/17 12:02:11;;;;;;;5.80;3.40;;;;;;;18.18;44.92;100597.28;1657487;86;21898;-84
2023/10/17 12:05:20;;;;;;;3.95;2.65;;;;;;;18.40;45.37;100597.83;1657470;86;21941;-84
2023/10/17 12:08:31;;;;;;;5.65;3.15;;;;;;;18.03;45.53;100593.94;1656828;86;21349;-81
2023/10/17 12:11:37;;;;;;;4.53;2.77;;;;;;;18.17;45.90;100589.20;1656407;86;21966;-84
2023/10/17 12:14:42;;;;;;;4.80;3.25;;;;;;;18.38;45.78;100598.56;1643433;86;21292;-84
2023/10/17 12:17:51;;;;;;;5.30;3.05;;;;;;;18.51;45.96;100604.58;1627544;86;21878;-83
2023/10/17 12:21:01;;;;;;;3.75;2.55;;;;;;;18.35;45.07;100604.56;1638909;86;21338;-81
2023/10/17 12:23:58;;;;;;;2.52;2.00;;;;;;;18.41;43.37;100603.67;1653006;86;21337;-81
2023/10/17 12:27:06;;;;;;;2.60;2.15;;;;;;;18.56;44.14;100601.45;1657992;84;21946;-81
2023/10/17 12:30:22;;;;;;;3.05;1.75;;;;;;;18.60;45.38;100597.71;1667736;85;21345;-82
2023/10/17 12:33:23;;;;;;;2.85;1.42;;;;;;;18.65;44.86;100600.13;1653285;86;21226;-84
2023/10/17 12:36:30;;;;;;;2.50;1.80;;;;;;;18.00;46.31;100597.97;1655708;85;21363;-81
2023/10/17 12:39:36;;;;;;;7.30;2.50;;;;;;;17.73;45.24;100594.42;1655303;86;21938;-81
2023/10/17 12:42:42;;;;;;;4.30;2.50;;;;;;;18.01;46.01;100599.67;1658681;86;22509;-84
2023/10/17 12:45:52;;;;;;;4.05;2.25;;;;;;;18.41;45.18;100595.36;1659207;85;21974;-82
2023/10/17 12:49:06;;;;;;;7.97;3.33;;;;;;;17.94;46.44;100597.47;1648939;86;21250;-84
2023/10/17 12:52:16;;;;;;;8.50;4.15;;;;;;;17.36;46.55;100597.31;1650153;86;21294;-82
2023/10/17 12:55:24;;;;;;;9.05;4.42;;;;;;;17.77;45.76;100601.23;1659877;86;21303;-80
2023/10/17 12:58:32;;;;;;;7.87;3.40;;;;;;;17.84;45.74;100598.47;1643284;86;21327;-82
2023/10/17 13:01:37;;;;;;;7.97;3.37;;;;;;;18.11;45.27;100593.67;1624085;87;21362;-80
2023/10/17 13:04:44;;;;;;;4.17;2.62;;;;;;;17.49;46.52;100604.22;1623942;88;21353;-83
2023/10/17 13:07:50;;;;;;;5.42;3.30;;;;;;;17.67;46.09;100602.72;1652208;86;21338;-83
2023/10/17 13:10:57;;;;;;;10.48;4.30;;;;;;;17.35;46.91;100600.62;1625545;88;21989;-80
2023/10/17 13:14:05;;;;;;;7.75;3.60;;;;;;;17.45;47.47;100602.95;1657821;86;21338;-83
2023/10/17 13:17:11;;;;;;;3.60;3.08;;;;;;;17.43;47.38;100596.80;1659062;86;21394;-80
2023/10/17 13:20:21;;;;;;;4.00;3.25;;;;;;;17.60;46.83;100595.83;1658559;86;21338;-80
2023/10/17 13:23:25;;;;;;;4.80;3.30;;;;;;;17.72;47.21;100594.62;1659770;85;21299;-84
2023/10/17 13:26:32;;;;;;;4.12;2.60;;;;;;;17.65;47.10;100597.95;1659335;86;22169;-82
2023/10/17 13:29:37;;;;;;;3.65;2.70;;;;;;;17.72;46.50;100597.39;1639298;86;21327;-82
2023/10/17 13:32:42;;;;;;;5.72;3.10;;;;;;;17.93;46.24;100594.39;1638597;86;21335;-82
2023/10/17 13:35:49;;;;;;;6.37;2.58;;;;;;;17.51;46.92;100595.20;1582727;90;21380;-81
2023/10/17 13:38:55;;;;;;;4.58;2.50;;;;;;;17.72;46.71;100595.47;1638781;87;21308;-81
2023/10/17 13:42:02;;;;;;;4.00;2.27;;;;;;;18.09;46.20;100596.66;1638790;86;21885;-82
2023/10/17 13:45:07;;;;;;;3.45;2.47;;;;;;;17.93;46.32;100590.78;1583131;89;21352;-81
2023/10/17 13:48:13;;;;;;;7.25;3.17;;;;;;;17.71;46.01;100599.84;1583116;90;21356;-81
2023/10/17 13:51:18;;;;;;;2.37;1.92;;;;;;;17.87;46.34;100590.55;1582743;90;21399;-81
2023/10/17 13:54:23;;;;;;;4.53;3.17;;;;;;;17.54;47.12;100596.13;1582981;90;21914;-81
2023/10/17 13:57:29;;;;;;;6.08;2.45;;;;;;;17.35;47.62;100603.92;1583087;89;22006;-83
2023/10/17 14:00:49;;;;;;;4.35;2.95;;;;;;;17.26;47.71;100598.28;1664496;85;21329;-82
2023/10/17 14:03:52;;;;;;;4.92;2.80;;;;;;;17.17;47.78;100598.17;1665849;86;21610;-81
2023/10/17 14:06:59;;;;;;;5.12;2.75;;;;;;;17.50;46.89;100594.89;1607144;88;21371;-82
2023/10/17 14:10:09;;;;;;;4.17;2.33;;;;;;;17.64;46.73;100595.69;1635057;87;21952;-81
2023/10/17 14:13:16;;;;;;;4.95;2.83;;;;;;;17.59;46.50;100594.10;1598138;89;21356;-82
2023/10/17 14:16:25;;;;;;;6.33;3.33;;;;;;;17.70;46.43;100601.76;1601934;89;21430;-84
2023/10/17 14:22:44;;;;;;;6.37;2.95;;;;;;;17.62;46.61;100605.59;1665591;86;21274;-81
2023/10/17 14:26:03;;;;;;;8.30;2.85;;;;;;;17.63;46.62;100603.14;1607997;89;21320;-80
2023/10/17 14:29:07;;;;;;;4.45;2.67;;;;;;;17.24;47.47;100597.66;1607857;89;21327;-80
2023/10/17 14:32:13;;;;;;;4.80;3.22;;;;;;;17.28;47.49;100600.32;1649343;87;21322;-82
2023/10/17 14:35:20;;;;;;;3.87;2.70;;;;;;;17.26;47.54;100601.89;1649870;87;21314;-83
2023/10/17 14:38:26;;;;;;;3.60;2.65;;;;;;;16.60;48.57;100595.73;1650163;87;21308;-81
2023/10/17 14:41:35;;;;;;;4.78;2.67;;;;;;;16.61;48.23;100604.90;1648942;87;21953;-83
2023/10/17 14:44:45;;;;;;;8.58;2.95;;;;;;;16.21;49.06;100606.13;1648196;87;21279;-82
2023/10/17 14:47:51;;;;;;;5.45;3.77;;;;;;;16.46;48.71;100600.05;1616562;88;21797;-83
2023/10/17 14:50:57;;;;;;;8.05;4.08;;;;;;;16.59;48.26;100605.63;1631874;86;21363;-82
2023/10/17 14:54:08;;;;;;;8.90;4.10;;;;;;;16.22;48.60;100602.31;1632418;88;21929;-81
2023/10/17 14:57:09;;;;;;;7.97;3.55;;;;;;;16.06;49.39;100608.20;1632174;86;21324;-81
2023/10/17 15:00:14;;;;;;;9.68;3.35;;;;;;;16.47;48.39;100607.30;1643258;85;21984;-81
2023/10/17 15:03:21;;;;;;;5.17;3.08;;;;;;;16.31;48.69;100613.49;1673541;85;22376;-83
2023/10/17 15:06:21;;;;;;;6.62;3.47;;;;;;;16.46;48.30;100610.56;1673996;84;21316;-83
2023/10/17 15:09:27;;;;;;;4.42;2.98;;;;;;;16.29;48.62;100615.63;1674687;85;21315;-83
2023/10/17 15:12:33;;;;;;;7.47;3.20;;;;;;;16.39;48.41;100618.52;1673001;84;21383;-83
2023/10/17 15:15:39;;;;;;;6.83;3.35;;;;;;;16.36;48.35;100618.39;1667717;84;21276;-81
2023/10/17 15:18:47;;;;;;;9.25;3.27;;;;;;;16.09;48.94;100625.70;1667953;86;21865;-83
2023/10/17 15:21:53;;;;;;;6.58;4.05;;;;;;;16.07;48.92;100628.67;1666889;84;21366;-82
2023/10/17 15:25:00;;;;;;;5.45;3.65;;;;;;;15.98;49.13;100628.52;1667875;86;21651;-84
2023/10/17 15:28:06;;;;;;;11.20;4.20;;;;;;;16.25;48.52;100625.37;1670823;85;21292;-84
2023/10/17 15:31:16;;;;;;;6.85;4.67;;;;;;;15.97;49.18;100630.96;1647410;87;21394;-82
2023/10/17 15:34:23;;;;;;;7.53;4.65;;;;;;;15.92;49.16;100633.48;1649355;87;21304;-84
2023/10/17 15:37:29;;;;;;;7.72;4.30;;;;;;;15.77;49.50;100634.14;1649390;87;21323;-84
2023/10/17 15:40:36;;;;;;;12.80;4.45;;;;;;;15.71;49.48;100639.06;1650178;87;21318;-83
2023/10/17 15:43:41;;;;;;;16.85;5.80;;;;;;;15.64;49.65;100636.27;1650422;87;21920;-84
2023/10/17 15:46:48;;;;;;;9.80;5.10;;;;;;;15.36;50.11;100641.75;1649794;87;21346;-81
2023/10/17 15:49:54;;;;;;;7.35;4.50;;;;;;;15.26;50.35;100643.47;1650265;87;21291;-81
2023/10/17 15:53:01;;;;;;;12.28;4.97;;;;;;;15.44;49.80;100640.23;1648890;87;21358;-80
2023/10/17 15:56:09;;;;;;;6.08;3.90;;;;;;;15.63;49.26;100640.05;1650107;87;21337;-81
2023/10/17 15:59:15;;;;;;;9.05;4.50;;;;;;;15.63;49.21;100646.95;1650247;87;21338;-81
2023/10/17 16:02:21;;;;;;;12.28;5.45;;;;;;;15.31;49.69;100651.99;1649077;85;21391;-81
2023/10/17 16:05:29;;;;;;;19.82;6.20;;;;;;;15.30;49.94;100651.67;1650358;87;21295;-83
2023/10/17 16:08:35;;;;;;;9.83;6.95;;;;;;;15.16;50.08;100655.89;1650653;87;21292;-83
2023/10/17 16:11:42;;;;;;;12.90;5.22;;;;;;;15.45;49.57;100655.72;1649972;85;21318;-80
2023/10/17 16:14:48;;;;;;;10.25;6.17;;;;;;;15.19;49.64;100660.98;1650117;87;21314;-83
2023/10/17 16:17:54;;;;;;;12.23;7.08;;;;;;;15.03;49.90;100658.84;1649085;85;21369;-81
2023/10/17 16:21:00;;;;;;;8.38;5.78;;;;;;;14.94;50.02;100662.77;1650249;85;21346;-80
2023/10/17 16:24:06;;;;;;;9.85;6.30;;;;;;;14.69;50.50;100658.70;1650263;87;21347;-82
2023/10/17 16:27:15;;;;;;;10.68;7.78;;;;;;;14.53;50.74;100656.48;1649468;85;21880;-81
2023/10/17 16:30:21;;;;;;;16.10;9.90;;;;;;;14.60;50.62;100654.36;1639868;87;21309;-79